createdAt,value
2018-09-24T00:00:31.236Z,2.20
2018-09-24T00:03:06.389Z,2.30
2018-09-24T00:05:41.072Z,2.57
2018-09-24T00:08:15.758Z,2.67
2018-09-24T00:10:50.302Z,3.33
2018-09-24T00:13:24.874Z,2.57
2018-09-24T00:15:59.877Z,2.53
2018-09-24T00:18:34.669Z,2.87
2018-09-24T00:21:09.336Z,2.53
2018-09-24T00:23:44.492Z,2.70
2018-09-24T00:26:19.218Z,2.90
2018-09-24T00:28:54.272Z,2.80
2018-09-24T00:31:28.769Z,3.00
2018-09-24T00:34:03.967Z,2.37
2018-09-24T00:36:39.170Z,2.60
2018-09-24T00:39:13.806Z,2.53
2018-09-24T00:41:48.907Z,2.50
2018-09-24T00:44:23.625Z,2.50
2018-09-24T00:46:58.337Z,2.50
2018-09-24T00:49:32.907Z,2.50
2018-09-24T00:52:07.803Z,2.67
2018-09-24T00:54:42.763Z,2.63
2018-09-24T00:57:17.554Z,2.60
2018-09-24T00:59:52.689Z,2.83
2018-09-24T01:02:27.240Z,2.50
2018-09-24T01:05:01.787Z,2.90
2018-09-24T01:07:37.382Z,2.67
2018-09-24T01:10:12.313Z,2.60
2018-09-24T01:12:47.222Z,2.97
2018-09-24T01:15:22.052Z,2.80
2018-09-24T01:17:56.649Z,3.10
2018-09-24T01:20:31.361Z,2.90
2018-09-24T01:23:06.230Z,2.80
2018-09-24T01:25:40.918Z,3.10
2018-09-24T01:28:16.562Z,2.97
2018-09-24T01:30:51.036Z,2.70
2018-09-24T01:33:25.599Z,2.60
2018-09-24T01:36:00.181Z,3.47
2018-09-24T01:38:34.697Z,2.70
2018-09-24T01:41:09.403Z,2.90
2018-09-24T01:43:44.090Z,2.90
2018-09-24T01:46:18.420Z,3.13
2018-09-24T01:48:52.953Z,3.40
2018-09-24T01:51:35.240Z,3.00
2018-09-24T01:54:09.796Z,3.30
2018-09-24T01:56:44.305Z,3.20
2018-09-24T01:59:19.093Z,3.00
2018-09-24T02:01:53.454Z,3.00
2018-09-24T02:04:28.243Z,3.10
2018-09-24T02:07:02.649Z,2.70
2018-09-24T02:09:37.091Z,3.00
2018-09-24T02:12:12.074Z,3.00
2018-09-24T02:14:47.045Z,2.90
2018-09-24T02:17:26.423Z,3.10
2018-09-24T02:20:01.309Z,3.30
2018-09-24T02:22:35.872Z,3.20
2018-09-24T02:25:10.800Z,3.20
2018-09-24T02:27:45.261Z,2.90
2018-09-24T02:30:20.785Z,3.27
2018-09-24T02:32:55.344Z,3.50
2018-09-24T02:35:29.824Z,3.37
2018-09-24T02:38:04.365Z,3.50
2018-09-24T02:40:38.944Z,3.30
2018-09-24T02:43:14.028Z,3.10
2018-09-24T02:45:48.548Z,3.33
2018-09-24T02:48:23.660Z,3.50
2018-09-24T02:50:58.220Z,3.50
2018-09-24T02:53:39.579Z,3.70
2018-09-24T02:56:14.573Z,3.20
2018-09-24T02:58:48.882Z,3.30
2018-09-24T03:01:23.300Z,3.50
2018-09-24T03:03:58.352Z,3.33
2018-09-24T03:06:34.197Z,3.23
2018-09-24T03:09:13.965Z,3.33
2018-09-24T03:11:48.617Z,3.30
2018-09-24T03:14:27.109Z,3.20
2018-09-24T03:17:01.593Z,4.50
2018-09-24T03:19:36.116Z,3.40
2018-09-24T03:22:10.985Z,3.40
2018-09-24T03:24:45.462Z,3.20
2018-09-24T03:27:20.614Z,3.20
2018-09-24T03:29:55.012Z,3.27
2018-09-24T03:32:29.377Z,3.30
2018-09-24T03:35:04.584Z,3.40
2018-09-24T03:37:39.616Z,3.63
2018-09-24T03:40:14.775Z,3.43
2018-09-24T03:42:49.551Z,3.50
2018-09-24T03:45:23.969Z,3.17
2018-09-24T03:47:59.727Z,3.87
2018-09-24T03:50:35.230Z,3.00
2018-09-24T03:53:09.800Z,3.20
2018-09-24T03:55:47.494Z,2.83
2018-09-24T03:58:22.960Z,2.93
2018-09-24T04:00:57.364Z,3.00
2018-09-24T04:03:31.927Z,3.20
2018-09-24T04:06:11.565Z,3.30
2018-09-24T04:08:51.671Z,3.33
2018-09-24T04:11:32.126Z,3.40
2018-09-24T04:14:12.002Z,3.60
2018-09-24T04:16:51.777Z,3.27
2018-09-24T04:19:32.267Z,3.30
2018-09-24T04:22:12.260Z,3.50
2018-09-24T04:24:52.705Z,3.40
2018-09-24T04:27:39.752Z,3.20
2018-09-24T04:30:19.732Z,3.30
2018-09-24T04:32:59.667Z,3.43
2018-09-24T04:35:39.865Z,3.40
2018-09-24T04:38:19.681Z,3.30
2018-09-24T04:40:59.941Z,3.60
2018-09-24T04:43:39.746Z,3.70
2018-09-24T04:46:29.505Z,3.80
2018-09-24T04:49:09.601Z,4.20
2018-09-24T04:51:49.851Z,3.53
2018-09-24T04:54:29.647Z,3.47
2018-09-24T04:57:09.989Z,4.37
2018-09-24T04:59:49.821Z,3.80
2018-09-24T05:02:30.115Z,3.50
2018-09-24T05:05:10.488Z,4.27
2018-09-24T05:07:50.601Z,3.73
2018-09-24T05:10:31.405Z,3.90
2018-09-24T05:13:14.452Z,3.60
2018-09-24T05:15:54.247Z,3.90
2018-09-24T05:18:34.489Z,3.77
2018-09-24T05:21:14.530Z,3.80
2018-09-24T05:23:54.132Z,3.60
2018-09-24T05:26:33.948Z,4.07
2018-09-24T05:29:13.516Z,4.20
2018-09-24T05:31:53.369Z,3.90
2018-09-24T05:34:33.787Z,3.93
2018-09-24T05:37:13.922Z,4.00
2018-09-24T05:39:54.275Z,4.13
2018-09-24T05:42:34.225Z,12.57
2018-09-24T05:45:14.137Z,6.73
2018-09-24T05:47:54.286Z,8.50
2018-09-24T05:50:34.164Z,4.17
2018-09-24T05:53:13.948Z,6.57
2018-09-24T05:55:54.374Z,6.30
2018-09-24T05:58:34.273Z,8.17
2018-09-24T06:01:14.431Z,11.70
2018-09-24T06:03:54.444Z,3.93
2018-09-24T06:06:34.293Z,7.00
2018-09-24T06:09:14.370Z,4.97
2018-09-24T06:11:54.719Z,4.77
2018-09-24T06:14:34.593Z,5.53
2018-09-24T06:17:14.427Z,4.23
2018-09-24T06:19:54.149Z,4.67
2018-09-24T06:22:33.952Z,6.40
2018-09-24T06:25:13.768Z,6.43
2018-09-24T06:27:53.748Z,3.70
2018-09-24T06:30:33.831Z,7.57
2018-09-24T06:33:13.710Z,5.67
2018-09-24T06:35:53.621Z,5.80
2018-09-24T06:38:33.504Z,4.40
2018-09-24T06:41:13.149Z,4.17
2018-09-24T06:43:53.455Z,5.07
2018-09-24T06:46:34.103Z,5.93
2018-09-24T06:49:14.004Z,4.20
2018-09-24T06:51:54.224Z,6.03
2018-09-24T06:54:34.072Z,8.87
2018-09-24T06:57:14.297Z,6.77
2018-09-24T06:59:53.898Z,5.30
2018-09-24T07:02:33.624Z,6.23
2018-09-24T07:05:13.509Z,5.83
2018-09-24T07:07:53.323Z,4.53
2018-09-24T07:10:33.516Z,5.00
2018-09-24T07:13:13.355Z,4.33
2018-09-24T07:15:53.146Z,5.67
2018-09-24T07:18:33.228Z,5.50
2018-09-24T07:21:13.157Z,4.83
2018-09-24T07:23:53.053Z,4.80
2018-09-24T07:26:33.164Z,8.10
2018-09-24T07:29:13.052Z,5.10
2018-09-24T07:31:52.688Z,7.20
2018-09-24T07:34:32.309Z,4.67
2018-09-24T07:37:12.572Z,3.83
2018-09-24T07:39:52.368Z,5.03
2018-09-24T07:42:32.504Z,4.83
2018-09-24T07:45:12.673Z,6.93
2018-09-24T07:47:52.619Z,6.50
2018-09-24T07:50:32.526Z,6.00
2018-09-24T07:53:12.353Z,7.53
2018-09-24T07:55:52.204Z,6.87
2018-09-24T07:58:32.224Z,6.63
2018-09-24T08:01:12.417Z,4.87
2018-09-24T08:03:52.677Z,4.90
2018-09-24T08:06:33.035Z,6.00
2018-09-24T08:09:13.128Z,4.73
2018-09-24T08:11:52.930Z,5.23
2018-09-24T08:14:32.868Z,6.17
2018-09-24T08:17:12.681Z,12.30
2018-09-24T08:19:52.517Z,6.43
2018-09-24T08:22:32.452Z,8.67
2018-09-24T08:25:12.365Z,5.90
2018-09-24T08:27:52.451Z,6.23
2018-09-24T08:30:32.427Z,8.73
2018-09-24T08:33:12.664Z,10.27
2018-09-24T08:35:52.912Z,7.30
2018-09-24T08:38:32.857Z,4.23
2018-09-24T08:41:12.582Z,4.77
2018-09-24T08:43:52.580Z,8.67
2018-09-24T08:46:32.618Z,5.63
2018-09-24T08:49:13.232Z,7.27
2018-09-24T08:51:53.048Z,5.00
2018-09-24T08:54:32.868Z,6.30
2018-09-24T08:57:13.597Z,4.70
2018-09-24T08:59:53.553Z,6.87
2018-09-24T09:02:34.021Z,5.80
2018-09-24T09:05:14.109Z,5.33
2018-09-24T09:07:53.942Z,7.37
2018-09-24T09:10:33.791Z,6.07
2018-09-24T09:13:13.628Z,6.27
2018-09-24T09:15:53.485Z,7.00
2018-09-24T09:18:33.278Z,8.27
2018-09-24T09:21:13.020Z,9.33
2018-09-24T09:23:53.274Z,5.07
2018-09-24T09:26:33.375Z,5.70
2018-09-24T09:29:13.216Z,6.93
2018-09-24T09:31:53.698Z,7.70
2018-09-24T09:34:33.909Z,4.93
2018-09-24T09:37:13.934Z,4.13
2018-09-24T09:39:53.639Z,5.07
2018-09-24T09:42:33.320Z,4.37
2018-09-24T09:45:13.746Z,4.77
2018-09-24T09:47:53.687Z,5.83
2018-09-24T09:50:33.655Z,3.70
2018-09-24T09:53:13.746Z,6.60
2018-09-24T09:55:53.552Z,5.90
2018-09-24T09:58:34.201Z,7.40
2018-09-24T10:01:14.294Z,4.97
2018-09-24T10:03:54.135Z,4.63
2018-09-24T10:06:34.058Z,4.10
2018-09-24T10:09:14.360Z,6.47
2018-09-24T10:11:54.259Z,11.17
2018-09-24T10:14:34.324Z,4.37
2018-09-24T10:17:14.265Z,4.20
2018-09-24T10:19:53.915Z,4.97
2018-09-24T10:22:33.683Z,3.47
2018-09-24T10:25:14.081Z,5.67
2018-09-24T10:27:54.006Z,3.83
2018-09-24T10:30:33.922Z,5.33
2018-09-24T10:33:13.602Z,5.27
2018-09-24T10:35:53.789Z,5.43
2018-09-24T10:38:33.687Z,3.67
2018-09-24T10:41:13.645Z,4.07
2018-09-24T10:43:53.788Z,6.70
2018-09-24T10:46:33.625Z,4.43
2018-09-24T10:49:13.389Z,4.10
2018-09-24T10:51:53.589Z,6.07
2018-09-24T10:54:33.072Z,4.40
2018-09-24T10:57:13.212Z,4.00
2018-09-24T10:59:53.074Z,5.87
2018-09-24T11:02:33.062Z,6.23
2018-09-24T11:05:13.364Z,6.40
2018-09-24T11:07:53.130Z,4.13
2018-09-24T11:10:32.940Z,9.27
2018-09-24T11:13:13.305Z,2.77
2018-09-24T11:15:53.564Z,3.37
2018-09-24T11:18:33.619Z,3.37
2018-09-24T11:21:13.689Z,5.67
2018-09-24T11:23:53.739Z,3.63
2018-09-24T11:29:12.953Z,3.67
2018-09-24T11:31:52.928Z,5.07
2018-09-24T11:34:32.704Z,6.03
2018-09-24T11:37:12.541Z,3.57
2018-09-24T11:39:52.281Z,2.93
2018-09-24T11:42:32.243Z,3.77
2018-09-24T11:45:12.595Z,4.20
2018-09-24T11:47:52.892Z,6.07
2018-09-24T11:50:32.547Z,3.60
2018-09-24T11:53:12.513Z,5.00
2018-09-24T11:55:52.336Z,5.07
2018-09-24T11:58:32.614Z,5.30
2018-09-24T12:01:12.733Z,4.97
2018-09-24T12:03:52.766Z,4.10
2018-09-24T12:06:33.017Z,3.93
2018-09-24T12:09:14.504Z,3.90
2018-09-24T12:11:54.293Z,12.07
2018-09-24T12:14:33.971Z,9.13
2018-09-24T12:17:13.907Z,6.40
2018-09-24T12:19:54.053Z,6.23
2018-09-24T12:22:33.889Z,15.43
2018-09-24T12:25:13.180Z,12.97
2018-09-24T12:27:52.965Z,2.30
2018-09-24T12:30:32.517Z,3.90
2018-09-24T12:33:12.553Z,4.17
2018-09-24T12:35:52.220Z,3.33
2018-09-24T12:38:32.283Z,4.80
2018-09-24T12:41:12.743Z,5.30
2018-09-24T12:44:00.640Z,5.23
2018-09-24T12:46:40.376Z,3.57
2018-09-24T12:49:20.036Z,6.50
2018-09-24T12:51:59.828Z,6.13
2018-09-24T12:54:39.736Z,4.33
2018-09-24T12:57:19.413Z,3.67
2018-09-24T12:59:59.166Z,3.43
2018-09-24T13:02:39.352Z,5.70
2018-09-24T13:05:19.291Z,6.57
2018-09-24T13:07:59.165Z,4.17
2018-09-24T13:10:39.416Z,4.30
2018-09-24T13:13:19.424Z,4.13
2018-09-24T13:15:59.316Z,3.80
2018-09-24T13:18:39.197Z,3.93
2018-09-24T13:21:18.884Z,5.77
2018-09-24T13:23:59.036Z,3.67
2018-09-24T13:26:38.711Z,4.80
2018-09-24T13:29:18.362Z,3.77
2018-09-24T13:31:58.208Z,3.73
2018-09-24T13:34:37.980Z,3.60
2018-09-24T13:37:17.996Z,5.20
2018-09-24T13:39:58.285Z,7.20
2018-09-24T13:42:38.164Z,2.77
2018-09-24T13:45:18.167Z,3.27
2018-09-24T13:47:58.065Z,3.27
2018-09-24T13:50:37.713Z,4.00
2018-09-24T13:53:17.364Z,4.47
2018-09-24T13:55:57.572Z,5.97
2018-09-24T13:58:37.480Z,3.67
2018-09-24T14:01:17.412Z,6.10
2018-09-24T14:03:57.552Z,5.23
2018-09-24T14:06:37.748Z,3.43
2018-09-24T14:09:17.868Z,3.37
2018-09-24T14:11:57.649Z,4.37
2018-09-24T14:14:37.741Z,3.77
2018-09-24T14:17:18.011Z,5.53
2018-09-24T14:19:57.732Z,3.60
2018-09-24T14:22:37.667Z,5.53
2018-09-24T14:25:17.705Z,3.90
2018-09-24T14:27:57.556Z,3.80
2018-09-24T14:30:37.959Z,2.77
2018-09-24T14:33:18.055Z,6.90
2018-09-24T14:35:57.881Z,3.43
2018-09-24T14:38:37.599Z,4.63
2018-09-24T14:41:17.720Z,3.97
2018-09-24T14:43:57.324Z,2.70
2018-09-24T14:46:37.484Z,4.73
2018-09-24T14:49:17.542Z,2.70
2018-09-24T14:51:57.419Z,2.73
2018-09-24T14:54:37.220Z,3.83
2018-09-24T14:57:17.084Z,4.13
2018-09-24T14:59:57.121Z,3.33
2018-09-24T15:02:36.854Z,2.43
2018-09-24T15:05:16.492Z,5.87
2018-09-24T15:07:56.563Z,3.83
2018-09-24T15:10:36.437Z,2.67
2018-09-24T15:13:16.893Z,4.97
2018-09-24T15:15:56.837Z,4.00
2018-09-24T15:18:36.531Z,3.17
2018-09-24T15:21:16.545Z,5.93
2018-09-24T15:23:56.361Z,4.60
2018-09-24T15:26:40.920Z,5.80
2018-09-24T15:29:20.520Z,5.53
2018-09-24T15:32:00.652Z,5.30
2018-09-24T15:34:40.433Z,4.13
2018-09-24T15:37:20.259Z,4.63
2018-09-24T15:40:00.241Z,4.37
2018-09-24T15:42:39.971Z,3.13
2018-09-24T15:45:19.904Z,3.10
2018-09-24T15:48:00.102Z,3.23
2018-09-24T15:50:39.996Z,3.87
2018-09-24T15:53:21.759Z,5.17
2018-09-24T15:56:01.933Z,4.37
2018-09-24T15:58:41.621Z,5.60
2018-09-24T16:01:21.384Z,4.77
2018-09-24T16:04:01.176Z,5.07
2018-09-24T16:06:40.915Z,6.23
2018-09-24T16:09:20.680Z,3.53
2018-09-24T16:12:01.324Z,3.80
2018-09-24T16:14:41.336Z,3.73
2018-09-24T16:17:21.404Z,3.37
2018-09-24T16:20:01.478Z,4.37
2018-09-24T16:22:41.999Z,5.20
2018-09-24T16:25:31.503Z,5.40
2018-09-24T16:28:11.712Z,5.50
2018-09-24T16:30:52.040Z,3.83
2018-09-24T16:33:31.951Z,6.33
2018-09-24T16:36:11.948Z,3.37
2018-09-24T16:38:51.828Z,4.30
2018-09-24T16:41:31.599Z,6.73
2018-09-24T16:44:12.011Z,4.83
2018-09-24T16:46:51.820Z,5.67
2018-09-24T16:49:31.667Z,5.90
2018-09-24T16:52:11.725Z,4.77
2018-09-24T16:54:52.119Z,5.37
2018-09-24T16:57:31.838Z,4.23
2018-09-24T17:00:11.736Z,4.37
2018-09-24T17:02:51.628Z,3.13
2018-09-24T17:05:31.588Z,4.83
2018-09-24T17:08:12.142Z,4.87
2018-09-24T17:10:51.808Z,3.50
2018-09-24T17:13:31.709Z,3.67
2018-09-24T17:16:11.767Z,4.07
2018-09-24T17:18:52.085Z,4.27
2018-09-24T17:21:32.407Z,6.03
2018-09-24T17:24:13.196Z,5.00
2018-09-24T17:26:54.248Z,5.00
2018-09-24T17:29:34.745Z,3.83
2018-09-24T17:32:15.485Z,4.43
2018-09-24T17:34:56.268Z,5.73
2018-09-24T17:37:36.325Z,4.63
2018-09-24T17:40:23.592Z,5.27
2018-09-24T17:43:05.560Z,4.03
2018-09-24T17:45:46.085Z,4.60
2018-09-24T17:48:25.959Z,4.37
2018-09-24T17:51:07.094Z,6.40
2018-09-24T17:54:00.932Z,5.33
2018-09-24T17:56:40.747Z,4.23
2018-09-24T17:59:20.636Z,4.40
2018-09-24T18:02:00.426Z,5.10
2018-09-24T18:04:40.628Z,3.90
2018-09-24T18:07:33.376Z,4.33
2018-09-24T18:10:13.383Z,4.77
2018-09-24T18:12:53.136Z,5.77
2018-09-24T18:15:32.844Z,4.63
2018-09-24T18:18:13.157Z,4.50
2018-09-24T18:20:52.776Z,4.40
2018-09-24T18:23:33.020Z,5.77
2018-09-24T18:26:13.564Z,6.23
2018-09-24T18:28:53.508Z,6.47
2018-09-24T18:31:33.511Z,5.93
2018-09-24T18:34:13.531Z,3.97
2018-09-24T18:36:53.424Z,5.33
2018-09-24T18:39:33.212Z,6.87
2018-09-24T18:42:14.438Z,4.70
2018-09-24T18:45:05.478Z,6.83
2018-09-24T18:47:46.867Z,5.70
2018-09-24T18:50:26.628Z,6.43
2018-09-24T18:53:08.301Z,5.53
2018-09-24T18:55:48.059Z,5.27
2018-09-24T18:58:47.753Z,5.20
2018-09-24T19:01:27.707Z,6.97
2018-09-24T19:04:07.411Z,6.20
2018-09-24T19:06:47.464Z,7.03
2018-09-24T19:09:27.169Z,7.07
2018-09-24T19:12:07.088Z,6.30
2018-09-24T19:14:47.012Z,6.33
2018-09-24T19:17:26.954Z,7.53
2018-09-24T19:20:06.767Z,6.83
2018-09-24T19:22:46.981Z,7.13
2018-09-24T19:25:26.824Z,7.87
2018-09-24T19:28:06.751Z,8.57
2018-09-24T19:30:50.668Z,8.03
2018-09-24T19:33:30.661Z,6.33
2018-09-24T19:36:10.775Z,7.40
2018-09-24T19:38:51.141Z,7.87
2018-09-24T19:41:30.799Z,12.10
2018-09-24T19:44:10.533Z,7.60
2018-09-24T19:46:50.772Z,9.33
2018-09-24T19:49:30.538Z,7.70
2018-09-24T19:52:10.959Z,8.20
2018-09-24T19:54:51.120Z,7.30
2018-09-24T19:57:31.092Z,7.30
2018-09-24T20:00:11.158Z,7.50
2018-09-24T20:02:50.980Z,7.70
2018-09-24T20:08:38.206Z,10.00
2018-09-24T20:11:18.402Z,7.63
2018-09-24T20:14:10.015Z,8.57
2018-09-24T20:16:50.177Z,10.73
2018-09-24T20:19:30.457Z,8.30
2018-09-24T20:22:12.490Z,8.67
2018-09-24T20:24:52.321Z,8.63
2018-09-24T20:27:33.120Z,7.40
2018-09-24T20:30:12.812Z,7.63
2018-09-24T20:32:52.596Z,8.00
2018-09-24T20:35:32.479Z,7.50
2018-09-24T20:38:13.110Z,7.10
2018-09-24T20:40:53.129Z,7.00
2018-09-24T20:43:32.839Z,9.13
2018-09-24T20:46:23.848Z,7.80
2018-09-24T20:49:03.830Z,7.33
2018-09-24T20:51:43.739Z,5.97
2018-09-24T20:54:23.600Z,6.27
2018-09-24T20:57:03.292Z,6.00
2018-09-24T20:59:43.204Z,7.73
2018-09-24T21:02:23.529Z,6.07
2018-09-24T21:05:03.660Z,8.37
2018-09-24T21:07:43.596Z,6.03
2018-09-24T21:10:23.292Z,6.10
2018-09-24T21:13:03.027Z,6.77
2018-09-24T21:15:43.080Z,6.37
2018-09-24T21:18:22.993Z,6.37
2018-09-24T21:21:03.078Z,5.90
2018-09-24T21:23:42.819Z,6.23
2018-09-24T21:26:22.540Z,6.93
2018-09-24T21:29:02.181Z,5.53
2018-09-24T21:31:42.616Z,7.20
2018-09-24T21:34:22.408Z,6.30
2018-09-24T21:37:02.271Z,6.50
2018-09-24T21:39:42.158Z,6.20
2018-09-24T21:42:22.264Z,6.53
2018-09-24T21:45:01.965Z,6.00
2018-09-24T21:47:41.969Z,6.07
2018-09-24T21:50:22.073Z,6.67
2018-09-24T21:53:01.912Z,6.83
2018-09-24T21:55:41.700Z,6.50
2018-09-24T21:58:21.401Z,6.30
2018-09-24T22:01:01.501Z,7.17
2018-09-24T22:03:41.390Z,6.23
2018-09-24T22:06:21.248Z,6.23
2018-09-24T22:09:00.983Z,6.40
2018-09-24T22:11:40.975Z,6.23
2018-09-24T22:14:28.647Z,6.40
2018-09-24T22:17:08.581Z,7.67
2018-09-24T22:19:48.788Z,5.90
2018-09-24T22:22:28.561Z,6.67
2018-09-24T22:25:09.156Z,5.70
2018-09-24T22:27:49.269Z,7.17
2018-09-24T22:30:29.108Z,7.70
2018-09-24T22:33:09.044Z,6.50
2018-09-24T22:35:48.848Z,5.90
2018-09-24T22:38:29.257Z,6.30
2018-09-24T22:41:09.286Z,5.47
2018-09-24T22:43:49.231Z,7.50
2018-09-24T22:46:29.136Z,6.27
2018-09-24T22:49:09.640Z,5.20
2018-09-24T22:51:49.840Z,6.17
2018-09-24T22:54:29.757Z,6.90
2018-09-24T22:57:10.265Z,7.50
2018-09-24T22:59:50.580Z,5.47
2018-09-24T23:02:30.701Z,5.97
2018-09-24T23:05:10.885Z,5.87
2018-09-24T23:07:50.801Z,5.60
2018-09-24T23:10:30.907Z,6.93
2018-09-24T23:13:11.516Z,6.80
2018-09-24T23:15:51.360Z,5.57
2018-09-24T23:18:31.140Z,5.83
2018-09-24T23:21:11.059Z,5.50
2018-09-24T23:23:51.165Z,6.07
2018-09-24T23:26:31.568Z,5.70
2018-09-24T23:29:11.641Z,5.30
2018-09-24T23:31:52.000Z,5.53
2018-09-24T23:34:32.329Z,5.80
2018-09-24T23:37:12.164Z,5.30
2018-09-24T23:39:52.096Z,5.37
2018-09-24T23:42:32.033Z,6.47
2018-09-24T23:45:12.648Z,6.00
2018-09-24T23:47:52.908Z,7.00
2018-09-24T23:50:33.178Z,6.93
2018-09-24T23:53:13.162Z,6.53
2018-09-24T23:55:53.222Z,5.80
2018-09-24T23:58:33.318Z,6.40
